Time;durP1;ratioP1;P1;durP2;ratioP2;P2;SDS_P1;SDS_P2;PMS_P1;PMS_P2;Temp;Humidity;BMP_temperature;BMP_pressure;BME280_temperature;BME280_humidity;BME280_pressure;Samples;Min_cycle;Max_cycle;Signal;HPM_P1;HPM_P2
2023/05/21 00:02:23;;;;;;;169.25;118.82;;;;;;;;;;5030771;28;20064;-66
2023/05/21 00:04:50;;;;;;;171.07;119.93;;;;;;;;;;5033713;28;20087;-65
2023/05/21 00:07:17;;;;;;;167.23;121.70;;;;;;;;;;5030662;28;20123;-65
2023/05/21 00:09:44;;;;;;;172.63;121.35;;;;;;;;;;5030039;28;21735;-66
2023/05/21 00:12:10;;;;;;;168.70;122.13;;;;;;;;;;5030396;28;20131;-66
2023/05/21 00:14:37;;;;;;;166.82;119.63;;;;;;;;;;5030135;28;20041;-66
2023/05/21 00:17:06;;;;;;;168.60;120.43;;;;;;;;;;5032490;28;20482;-65
2023/05/21 00:19:32;;;;;;;164.80;117.20;;;;;;;;;;5030817;28;20038;-66
2023/05/21 00:22:03;;;;;;;163.77;117.47;;;;;;;;;;5031514;28;20052;-64
2023/05/21 00:24:29;;;;;;;163.60;114.75;;;;;;;;;;5029286;28;20052;-65
2023/05/21 00:26:56;;;;;;;156.63;110.95;;;;;;;;;;5029439;28;20040;-66
2023/05/21 00:29:23;;;;;;;164.48;112.28;;;;;;;;;;5031409;28;20033;-66
2023/05/21 00:31:50;;;;;;;157.38;108.80;;;;;;;;;;5028148;28;20040;-69
2023/05/21 00:34:17;;;;;;;151.65;110.60;;;;;;;;;;5029593;28;20049;-66
2023/05/21 00:36:44;;;;;;;153.00;107.72;;;;;;;;;;5028377;28;20447;-65
2023/05/21 00:39:12;;;;;;;152.30;105.05;;;;;;;;;;5031140;28;20036;-64
2023/05/21 00:41:39;;;;;;;147.93;102.43;;;;;;;;;;5027890;28;20032;-66
2023/05/21 00:44:06;;;;;;;135.77;97.43;;;;;;;;;;5027381;28;20041;-64
2023/05/21 00:46:33;;;;;;;128.95;91.43;;;;;;;;;;5028295;28;20088;-66
2023/05/21 00:49:00;;;;;;;119.30;88.78;;;;;;;;;;5029140;28;20033;-65
2023/05/21 00:51:29;;;;;;;127.70;91.22;;;;;;;;;;5027965;28;20055;-65
2023/05/21 00:53:56;;;;;;;125.25;87.85;;;;;;;;;;5029316;28;20224;-65
2023/05/21 00:56:23;;;;;;;133.00;91.18;;;;;;;;;;5027251;28;20053;-68
2023/05/21 00:58:50;;;;;;;123.35;85.50;;;;;;;;;;5030444;28;20033;-65
2023/05/21 01:01:18;;;;;;;121.28;85.70;;;;;;;;;;5032527;28;20686;-65
2023/05/21 01:03:44;;;;;;;118.07;82.43;;;;;;;;;;5033758;28;20065;-65
2023/05/21 01:06:12;;;;;;;118.10;81.47;;;;;;;;;;5035079;28;20931;-65
2023/05/21 01:08:39;;;;;;;115.13;81.70;;;;;;;;;;5034404;28;20037;-63
2023/05/21 01:11:07;;;;;;;129.18;85.32;;;;;;;;;;5011718;28;20123;-64
2023/05/21 01:13:34;;;;;;;129.20;88.40;;;;;;;;;;5032586;28;20052;-65
2023/05/21 01:16:01;;;;;;;141.02;91.47;;;;;;;;;;5033392;28;20056;-65
2023/05/21 01:18:28;;;;;;;133.27;91.32;;;;;;;;;;5032430;28;20680;-63
2023/05/21 01:20:55;;;;;;;133.05;89.03;;;;;;;;;;5031659;28;20041;-66
2023/05/21 01:23:22;;;;;;;140.48;90.85;;;;;;;;;;5031100;28;20056;-66
2023/05/21 01:25:48;;;;;;;137.82;91.03;;;;;;;;;;5033772;28;20053;-65
2023/05/21 01:28:15;;;;;;;144.95;95.75;;;;;;;;;;5033909;28;20068;-64
2023/05/21 01:30:43;;;;;;;143.95;96.70;;;;;;;;;;5014920;28;20037;-63
2023/05/21 01:33:16;;;;;;;151.43;97.35;;;;;;;;;;5030696;28;20687;-63
2023/05/21 01:35:47;;;;;;;157.00;99.35;;;;;;;;;;5032250;28;20523;-64
2023/05/21 01:38:26;;;;;;;146.68;95.80;;;;;;;;;;5032603;28;20440;-66
2023/05/21 01:40:53;;;;;;;147.88;98.53;;;;;;;;;;5022761;28;20049;-66
2023/05/21 01:43:20;;;;;;;146.35;96.68;;;;;;;;;;5030691;28;20042;-67
2023/05/21 01:45:47;;;;;;;146.90;97.15;;;;;;;;;;5032446;28;20079;-65
2023/05/21 01:48:16;;;;;;;160.57;100.38;;;;;;;;;;5008930;28;20043;-65
2023/05/21 01:50:44;;;;;;;158.52;100.82;;;;;;;;;;5029701;28;20040;-66
2023/05/21 01:53:11;;;;;;;159.15;100.88;;;;;;;;;;5033399;28;20037;-66
2023/05/21 01:55:40;;;;;;;155.85;99.95;;;;;;;;;;5028514;28;20777;-65
2023/05/21 01:58:07;;;;;;;164.18;102.13;;;;;;;;;;5031613;28;20041;-65
2023/05/21 02:00:34;;;;;;;155.52;99.65;;;;;;;;;;5031419;28;20168;-65
2023/05/21 02:03:01;;;;;;;159.75;102.40;;;;;;;;;;5031492;28;20041;-66
2023/05/21 02:05:27;;;;;;;158.60;101.53;;;;;;;;;;5028022;28;20044;-66
2023/05/21 02:07:54;;;;;;;165.35;105.50;;;;;;;;;;5031911;28;20094;-68
2023/05/21 02:10:21;;;;;;;165.43;105.35;;;;;;;;;;5031601;28;20050;-67
2023/05/21 02:12:47;;;;;;;167.50;104.25;;;;;;;;;;5030781;28;20094;-67
2023/05/21 02:15:16;;;;;;;165.30;104.47;;;;;;;;;;5030763;28;20176;-68
2023/05/21 02:17:43;;;;;;;158.40;101.88;;;;;;;;;;5033225;28;20033;-68
2023/05/21 02:20:11;;;;;;;160.00;102.47;;;;;;;;;;5016855;28;20073;-66
2023/05/21 02:22:38;;;;;;;153.73;98.20;;;;;;;;;;5031422;28;20043;-66
2023/05/21 02:25:06;;;;;;;148.43;92.60;;;;;;;;;;5030766;28;20381;-67
2023/05/21 02:27:34;;;;;;;148.43;92.50;;;;;;;;;;5015530;28;20041;-67
2023/05/21 02:30:01;;;;;;;145.00;91.38;;;;;;;;;;5030279;28;20048;-67
2023/05/21 02:32:27;;;;;;;147.07;89.72;;;;;;;;;;5032601;28;20061;-65
2023/05/21 02:34:54;;;;;;;138.57;89.45;;;;;;;;;;5031812;28;20055;-65
2023/05/21 02:37:21;;;;;;;131.90;86.13;;;;;;;;;;5030692;28;20045;-65
2023/05/21 02:39:48;;;;;;;138.30;86.38;;;;;;;;;;5032012;28;20033;-65
2023/05/21 02:42:14;;;;;;;130.70;83.53;;;;;;;;;;5029027;28;20033;-64
2023/05/21 02:44:41;;;;;;;133.23;86.05;;;;;;;;;;5028557;28;20071;-64
2023/05/21 02:47:09;;;;;;;137.25;86.15;;;;;;;;;;5031330;28;20050;-64
2023/05/21 02:49:35;;;;;;;133.10;87.57;;;;;;;;;;5029072;28;20063;-63
2023/05/21 02:52:02;;;;;;;142.60;90.80;;;;;;;;;;5031093;28;20043;-64
2023/05/21 02:54:29;;;;;;;143.80;93.28;;;;;;;;;;5028169;28;20038;-66
2023/05/21 02:56:55;;;;;;;145.57;91.22;;;;;;;;;;5010978;28;20351;-66
2023/05/21 02:59:22;;;;;;;152.90;94.35;;;;;;;;;;5029103;28;20032;-64
2023/05/21 03:01:48;;;;;;;157.43;97.97;;;;;;;;;;5025210;28;20219;-65
2023/05/21 03:04:20;;;;;;;163.60;98.72;;;;;;;;;;5030329;28;20043;-65
2023/05/21 03:06:53;;;;;;;160.15;100.35;;;;;;;;;;5029082;28;20033;-65
2023/05/21 03:09:20;;;;;;;174.77;105.30;;;;;;;;;;5027223;28;21953;-65
2023/05/21 03:11:47;;;;;;;169.57;107.28;;;;;;;;;;5030300;28;20068;-65
2023/05/21 03:14:15;;;;;;;186.68;114.28;;;;;;;;;;5029360;28;20076;-67
2023/05/21 03:16:42;;;;;;;182.50;113.93;;;;;;;;;;5030197;28;20077;-65
2023/05/21 03:19:10;;;;;;;187.35;111.70;;;;;;;;;;5031644;28;20038;-64
2023/05/21 03:21:37;;;;;;;202.65;114.13;;;;;;;;;;5025944;28;20041;-67
2023/05/21 03:24:04;;;;;;;184.23;111.40;;;;;;;;;;5029349;28;20556;-64
2023/05/21 03:26:31;;;;;;;204.35;112.75;;;;;;;;;;5030980;28;20132;-66
2023/05/21 03:28:58;;;;;;;190.57;114.25;;;;;;;;;;5030214;28;20407;-65
2023/05/21 03:31:25;;;;;;;187.82;113.30;;;;;;;;;;5029036;28;20041;-65
2023/05/21 03:33:52;;;;;;;203.88;118.50;;;;;;;;;;5030335;28;20049;-65
2023/05/21 03:36:19;;;;;;;198.10;117.15;;;;;;;;;;5027231;28;20049;-65
2023/05/21 03:38:46;;;;;;;206.75;118.45;;;;;;;;;;5026293;28;20056;-67
2023/05/21 03:41:13;;;;;;;212.35;120.20;;;;;;;;;;5028861;28;20122;-65
2023/05/21 03:43:39;;;;;;;216.40;125.22;;;;;;;;;;5029692;28;20596;-63
2023/05/21 03:46:06;;;;;;;213.13;122.18;;;;;;;;;;5021735;28;20056;-65
2023/05/21 03:48:33;;;;;;;221.90;125.18;;;;;;;;;;5025669;28;20052;-67
2023/05/21 03:51:00;;;;;;;225.07;125.93;;;;;;;;;;5030336;28;20060;-67
2023/05/21 03:53:26;;;;;;;231.75;132.13;;;;;;;;;;5028442;28;20643;-64
2023/05/21 03:55:56;;;;;;;247.10;135.88;;;;;;;;;;5028667;28;20046;-62
2023/05/21 03:58:23;;;;;;;250.65;141.13;;;;;;;;;;5030532;28;20045;-64
2023/05/21 04:00:50;;;;;;;251.50;142.68;;;;;;;;;;5032783;28;20045;-63
2023/05/21 04:03:16;;;;;;;270.38;148.48;;;;;;;;;;5031971;28;20445;-64
2023/05/21 04:05:43;;;;;;;264.98;150.75;;;;;;;;;;5029743;28;20360;-67
2023/05/21 04:08:10;;;;;;;290.70;162.82;;;;;;;;;;5031452;28;20040;-65
2023/05/21 04:10:37;;;;;;;292.50;161.25;;;;;;;;;;5030306;28;20118;-65
2023/05/21 04:13:03;;;;;;;297.67;166.85;;;;;;;;;;5029993;28;20398;-62
2023/05/21 04:15:30;;;;;;;303.60;166.15;;;;;;;;;;5027972;28;20559;-63
2023/05/21 04:17:57;;;;;;;313.73;178.10;;;;;;;;;;5028725;28;20056;-65
2023/05/21 04:20:24;;;;;;;322.10;178.82;;;;;;;;;;5029949;28;20677;-65
2023/05/21 04:22:50;;;;;;;318.23;179.57;;;;;;;;;;5025785;28;20473;-63
2023/05/21 04:25:19;;;;;;;324.33;176.10;;;;;;;;;;5029228;28;20037;-64
2023/05/21 04:27:46;;;;;;;328.65;181.85;;;;;;;;;;5028480;28;20135;-63
2023/05/21 04:30:13;;;;;;;319.10;177.35;;;;;;;;;;5027920;28;20048;-64
2023/05/21 04:32:40;;;;;;;339.85;186.70;;;;;;;;;;5029410;28;20037;-63
2023/05/21 04:35:06;;;;;;;337.35;187.13;;;;;;;;;;5030810;28;20138;-64
2023/05/21 04:37:33;;;;;;;342.67;186.20;;;;;;;;;;5030245;28;20110;-65
2023/05/21 04:40:01;;;;;;;340.05;187.98;;;;;;;;;;5028174;28;20762;-64
2023/05/21 04:42:29;;;;;;;349.08;194.88;;;;;;;;;;5029302;28;20048;-64
2023/05/21 04:44:58;;;;;;;346.20;192.10;;;;;;;;;;5030053;28;20045;-65
2023/05/21 04:47:24;;;;;;;346.92;195.88;;;;;;;;;;5029666;28;20516;-64
2023/05/21 04:49:52;;;;;;;353.63;196.88;;;;;;;;;;5029684;28;20098;-64
2023/05/21 04:52:18;;;;;;;349.20;196.50;;;;;;;;;;5030910;28;20041;-64
2023/05/21 04:54:46;;;;;;;365.48;199.00;;;;;;;;;;5031641;28;21008;-64
2023/05/21 04:57:13;;;;;;;368.73;201.52;;;;;;;;;;5031891;28;20060;-65
2023/05/21 04:59:40;;;;;;;368.00;200.80;;;;;;;;;;5032226;28;20094;-65
2023/05/21 05:02:06;;;;;;;363.33;199.65;;;;;;;;;;5031137;28;20409;-65
2023/05/21 05:04:33;;;;;;;358.95;200.63;;;;;;;;;;5031452;28;20112;-65
2023/05/21 05:07:00;;;;;;;367.90;205.75;;;;;;;;;;5033245;28;21223;-65
2023/05/21 05:09:28;;;;;;;355.45;198.40;;;;;;;;;;5030437;28;20371;-64
2023/05/21 05:11:55;;;;;;;367.08;204.07;;;;;;;;;;5029947;28;20354;-64
2023/05/21 05:14:22;;;;;;;369.70;201.90;;;;;;;;;;5027566;28;20095;-64
2023/05/21 05:16:48;;;;;;;358.48;196.32;;;;;;;;;;5030770;28;20049;-64
2023/05/21 05:19:15;;;;;;;354.55;195.60;;;;;;;;;;5030621;28;20045;-65
2023/05/21 05:21:41;;;;;;;358.25;195.40;;;;;;;;;;5029274;28;20030;-65
2023/05/21 05:24:08;;;;;;;355.10;196.13;;;;;;;;;;5031356;28;20045;-66
2023/05/21 05:26:35;;;;;;;362.98;192.52;;;;;;;;;;5028122;28;20049;-67
2023/05/21 05:29:01;;;;;;;349.33;191.93;;;;;;;;;;5029877;28;20048;-65
2023/05/21 05:31:28;;;;;;;349.83;190.38;;;;;;;;;;5028218;28;21137;-66
2023/05/21 05:33:55;;;;;;;337.75;188.63;;;;;;;;;;5028675;28;20254;-63
2023/05/21 05:36:22;;;;;;;338.10;187.70;;;;;;;;;;5028339;28;20187;-63
2023/05/21 05:38:48;;;;;;;343.65;189.90;;;;;;;;;;5029074;28;21073;-62
2023/05/21 05:41:15;;;;;;;341.75;184.23;;;;;;;;;;5028410;28;20075;-64
2023/05/21 05:43:41;;;;;;;332.00;181.82;;;;;;;;;;5028394;28;20041;-62
2023/05/21 05:46:08;;;;;;;336.40;180.90;;;;;;;;;;5030972;28;20505;-63
2023/05/21 05:48:35;;;;;;;315.38;173.57;;;;;;;;;;5031449;28;20848;-64
2023/05/21 05:51:01;;;;;;;311.67;169.82;;;;;;;;;;5032585;28;20068;-62
2023/05/21 05:53:28;;;;;;;299.33;168.35;;;;;;;;;;5032242;28;20029;-62
2023/05/21 05:55:55;;;;;;;294.15;161.23;;;;;;;;;;5030812;28;20129;-63
2023/05/21 05:58:22;;;;;;;292.83;165.20;;;;;;;;;;5031829;28;20036;-64
2023/05/21 06:00:48;;;;;;;292.83;161.52;;;;;;;;;;5030222;28;20082;-64
2023/05/21 06:03:15;;;;;;;293.80;159.60;;;;;;;;;;5034211;28;20551;-62
2023/05/21 06:05:41;;;;;;;287.23;157.38;;;;;;;;;;5031153;28;20046;-63
2023/05/21 06:08:08;;;;;;;292.85;153.48;;;;;;;;;;5024296;28;20116;-63
2023/05/21 06:10:35;;;;;;;276.77;150.07;;;;;;;;;;5031887;28;20122;-61
2023/05/21 06:13:01;;;;;;;282.95;153.23;;;;;;;;;;5030506;28;20052;-64
2023/05/21 06:15:28;;;;;;;278.05;147.23;;;;;;;;;;5029280;28;20928;-63
2023/05/21 06:17:55;;;;;;;266.58;147.85;;;;;;;;;;5033397;28;20040;-63
2023/05/21 06:20:21;;;;;;;268.50;145.52;;;;;;;;;;5029368;28;20041;-63
2023/05/21 06:22:48;;;;;;;267.08;145.93;;;;;;;;;;5030953;28;22031;-65
2023/05/21 06:25:15;;;;;;;267.08;143.48;;;;;;;;;;5032281;28;20041;-64
2023/05/21 06:27:41;;;;;;;261.35;142.70;;;;;;;;;;5032444;28;20037;-64
2023/05/21 06:30:08;;;;;;;253.63;139.65;;;;;;;;;;5031272;28;20851;-66
2023/05/21 06:32:35;;;;;;;257.70;141.73;;;;;;;;;;5029144;28;20038;-65
2023/05/21 06:35:01;;;;;;;262.77;139.43;;;;;;;;;;5029742;28;20067;-64
2023/05/21 06:37:28;;;;;;;242.02;136.05;;;;;;;;;;5029336;28;20048;-65
2023/05/21 06:39:55;;;;;;;243.30;133.27;;;;;;;;;;5031383;28;20097;-65
2023/05/21 06:42:21;;;;;;;236.30;131.60;;;;;;;;;;5029052;28;20086;-64
2023/05/21 06:44:48;;;;;;;239.48;133.55;;;;;;;;;;5031921;28;20104;-65
2023/05/21 06:47:14;;;;;;;246.57;137.13;;;;;;;;;;5033577;28;20037;-65
2023/05/21 06:49:41;;;;;;;247.15;134.57;;;;;;;;;;5030680;28;20091;-64
2023/05/21 06:52:08;;;;;;;238.38;134.55;;;;;;;;;;5032131;28;20102;-64
2023/05/21 06:54:35;;;;;;;254.93;138.32;;;;;;;;;;5030955;28;20045;-63
2023/05/21 06:57:01;;;;;;;248.15;138.40;;;;;;;;;;5031785;28;20053;-63
2023/05/21 06:59:28;;;;;;;239.63;135.98;;;;;;;;;;5044810;28;20036;-65
2023/05/21 07:01:54;;;;;;;252.95;137.43;;;;;;;;;;5051744;28;20056;-65
2023/05/21 07:04:21;;;;;;;244.57;136.65;;;;;;;;;;5038102;28;20496;-64
2023/05/21 07:06:48;;;;;;;250.65;136.55;;;;;;;;;;5039570;28;20103;-64
2023/05/21 07:09:14;;;;;;;247.82;137.35;;;;;;;;;;5036107;28;20115;-65
2023/05/21 07:11:44;;;;;;;252.75;137.82;;;;;;;;;;5032361;28;20156;-64
2023/05/21 07:14:11;;;;;;;250.02;135.77;;;;;;;;;;5031534;28;20195;-64
2023/05/21 07:16:38;;;;;;;256.48;138.48;;;;;;;;;;5033444;28;20064;-64
2023/05/21 07:19:04;;;;;;;255.60;136.70;;;;;;;;;;5035137;28;20033;-64
2023/05/21 07:21:31;;;;;;;250.60;139.20;;;;;;;;;;5031986;28;20063;-63
2023/05/21 07:23:58;;;;;;;255.15;139.48;;;;;;;;;;5032381;28;20044;-63
2023/05/21 07:26:25;;;;;;;254.82;139.32;;;;;;;;;;5029156;28;20033;-64
2023/05/21 07:28:52;;;;;;;257.08;139.38;;;;;;;;;;5033315;28;20119;-63
2023/05/21 07:31:19;;;;;;;257.05;140.73;;;;;;;;;;5031935;28;20047;-65
2023/05/21 07:33:45;;;;;;;262.73;142.00;;;;;;;;;;5031298;28;20087;-64
2023/05/21 07:36:12;;;;;;;262.25;141.30;;;;;;;;;;5028806;28;20045;-64
2023/05/21 07:38:39;;;;;;;260.17;144.77;;;;;;;;;;5031752;28;20029;-64
2023/05/21 07:41:05;;;;;;;259.58;140.88;;;;;;;;;;5036629;28;20056;-63
2023/05/21 07:43:32;;;;;;;267.80;142.95;;;;;;;;;;5030716;28;20124;-62
2023/05/21 07:45:59;;;;;;;265.20;144.82;;;;;;;;;;5029908;28;20789;-63
2023/05/21 07:48:25;;;;;;;274.38;143.15;;;;;;;;;;5030253;28;20096;-62
2023/05/21 07:50:52;;;;;;;277.95;144.57;;;;;;;;;;5030891;28;20048;-63
2023/05/21 07:53:19;;;;;;;267.52;145.73;;;;;;;;;;5029781;28;20123;-63
2023/05/21 07:55:46;;;;;;;269.80;144.55;;;;;;;;;;5031590;28;20045;-63
2023/05/21 07:58:19;;;;;;;271.33;144.35;;;;;;;;;;5031573;28;20025;-63
2023/05/21 08:00:47;;;;;;;270.00;145.52;;;;;;;;;;5030420;28;20029;-63
2023/05/21 08:03:16;;;;;;;262.23;144.63;;;;;;;;;;5032728;28;20033;-63
2023/05/21 08:05:47;;;;;;;265.98;143.15;;;;;;;;;;5031499;28;20036;-63
2023/05/21 08:08:20;;;;;;;275.88;145.60;;;;;;;;;;5032778;28;20040;-63
2023/05/21 08:10:47;;;;;;;267.55;146.07;;;;;;;;;;5034793;28;20037;-63
2023/05/21 08:13:15;;;;;;;267.73;145.30;;;;;;;;;;5034895;28;20061;-64
2023/05/21 08:15:41;;;;;;;263.20;142.85;;;;;;;;;;5035041;28;20045;-63
2023/05/21 08:18:08;;;;;;;277.67;146.05;;;;;;;;;;5037404;28;20036;-63
2023/05/21 08:20:35;;;;;;;274.35;144.93;;;;;;;;;;5033622;28;21014;-63
2023/05/21 08:23:01;;;;;;;272.25;145.93;;;;;;;;;;5030714;28;20041;-64
2023/05/21 08:25:28;;;;;;;267.75;144.15;;;;;;;;;;5029018;28;20672;-64
2023/05/21 08:27:55;;;;;;;259.33;142.50;;;;;;;;;;5030394;28;20076;-65
2023/05/21 08:30:22;;;;;;;277.17;148.00;;;;;;;;;;5029751;28;20045;-65
2023/05/21 08:32:49;;;;;;;279.33;149.02;;;;;;;;;;5030918;28;20041;-63
2023/05/21 08:35:15;;;;;;;282.52;150.07;;;;;;;;;;5031910;28;20522;-63
2023/05/21 08:37:42;;;;;;;290.13;151.55;;;;;;;;;;5029013;28;20044;-62
2023/05/21 08:40:11;;;;;;;282.95;148.48;;;;;;;;;;5031865;28;20151;-63
2023/05/21 08:42:40;;;;;;;285.55;151.02;;;;;;;;;;5030685;28;20471;-63
2023/05/21 08:45:07;;;;;;;282.27;144.30;;;;;;;;;;5030250;28;20040;-63
2023/05/21 08:47:35;;;;;;;270.30;145.80;;;;;;;;;;5028575;28;20045;-62
2023/05/21 08:50:03;;;;;;;270.98;146.50;;;;;;;;;;5029082;28;20042;-64
2023/05/21 08:52:31;;;;;;;274.45;145.73;;;;;;;;;;5028432;28;20377;-63
2023/05/21 08:54:57;;;;;;;273.45;145.45;;;;;;;;;;5026175;28;20149;-63
2023/05/21 08:57:25;;;;;;;277.17;147.40;;;;;;;;;;5028557;28;20091;-64
2023/05/21 08:59:52;;;;;;;292.42;148.48;;;;;;;;;;5029199;28;20044;-64
2023/05/21 09:02:18;;;;;;;283.60;149.18;;;;;;;;;;5017631;28;20123;-64
2023/05/21 09:04:48;;;;;;;282.17;150.18;;;;;;;;;;5019278;28;20167;-63
2023/05/21 09:07:15;;;;;;;289.70;151.77;;;;;;;;;;5027617;28;20056;-64
2023/05/21 09:09:57;;;;;;;275.50;146.55;;;;;;;;;;5028460;28;20242;-64
2023/05/21 09:12:24;;;;;;;282.95;145.25;;;;;;;;;;5027569;28;20061;-63
2023/05/21 09:14:52;;;;;;;281.10;147.00;;;;;;;;;;5026103;28;20044;-62
2023/05/21 09:17:19;;;;;;;288.30;150.55;;;;;;;;;;5028173;28;20048;-63
2023/05/21 09:20:12;;;;;;;282.77;145.50;;;;;;;;;;5029011;28;21792;-63
2023/05/21 09:22:42;;;;;;;281.73;150.02;;;;;;;;;;5033511;28;20032;-63
2023/05/21 09:25:10;;;;;;;281.63;149.15;;;;;;;;;;5032431;28;20043;-64
2023/05/21 09:27:37;;;;;;;290.75;149.57;;;;;;;;;;5031650;28;20037;-63
2023/05/21 09:30:05;;;;;;;280.30;147.02;;;;;;;;;;5033181;28;20505;-63
2023/05/21 09:32:31;;;;;;;272.42;146.30;;;;;;;;;;5031866;28;20132;-64
2023/05/21 09:35:06;;;;;;;284.58;146.95;;;;;;;;;;5030099;28;20120;-64
2023/05/21 09:37:36;;;;;;;289.10;145.93;;;;;;;;;;5032663;28;20052;-64
2023/05/21 09:40:10;;;;;;;287.58;150.98;;;;;;;;;;5032657;28;20033;-64
2023/05/21 09:42:39;;;;;;;279.15;149.15;;;;;;;;;;5030973;28;20636;-63
2023/05/21 09:45:06;;;;;;;291.85;152.18;;;;;;;;;;5031470;28;20037;-63
2023/05/21 09:47:33;;;;;;;287.45;153.35;;;;;;;;;;5029087;28;20087;-65
2023/05/21 09:50:00;;;;;;;278.27;149.20;;;;;;;;;;5035876;28;20615;-63
2023/05/21 09:52:28;;;;;;;277.25;148.82;;;;;;;;;;5040091;28;20041;-62
2023/05/21 09:54:55;;;;;;;282.98;148.77;;;;;;;;;;5039844;28;20044;-63
2023/05/21 09:57:25;;;;;;;284.83;148.18;;;;;;;;;;5041018;28;20109;-63
2023/05/21 09:59:51;;;;;;;277.75;148.13;;;;;;;;;;5037524;28;20048;-62
2023/05/21 10:02:20;;;;;;;284.27;148.52;;;;;;;;;;5030652;28;21040;-63
2023/05/21 10:04:48;;;;;;;284.73;146.95;;;;;;;;;;5029813;28;20171;-63
2023/05/21 10:07:17;;;;;;;299.83;148.55;;;;;;;;;;5031710;28;20052;-63
2023/05/21 10:09:45;;;;;;;290.98;147.63;;;;;;;;;;5031127;28;20060;-63
2023/05/21 10:12:11;;;;;;;283.38;146.02;;;;;;;;;;5031750;28;20057;-63
2023/05/21 10:14:38;;;;;;;283.98;147.57;;;;;;;;;;5030799;28;20562;-63
2023/05/21 10:17:06;;;;;;;276.45;147.52;;;;;;;;;;5029106;28;20072;-63
2023/05/21 10:19:35;;;;;;;272.23;147.75;;;;;;;;;;5030360;28;20037;-63
2023/05/21 10:22:03;;;;;;;285.13;148.50;;;;;;;;;;5031063;28;20446;-63
2023/05/21 10:24:30;;;;;;;280.73;146.32;;;;;;;;;;5031421;28;20041;-63
2023/05/21 10:26:56;;;;;;;273.67;146.90;;;;;;;;;;5031768;28;20061;-63
2023/05/21 10:29:23;;;;;;;284.80;146.65;;;;;;;;;;5031624;28;20041;-63
2023/05/21 10:31:52;;;;;;;265.30;142.35;;;;;;;;;;5030059;28;20465;-62
2023/05/21 10:34:19;;;;;;;279.08;147.27;;;;;;;;;;5031926;28;20552;-62
2023/05/21 10:36:46;;;;;;;289.05;148.73;;;;;;;;;;5030449;28;20056;-61
2023/05/21 10:39:13;;;;;;;273.20;143.50;;;;;;;;;;5030828;28;20045;-61
2023/05/21 10:41:49;;;;;;;270.67;139.77;;;;;;;;;;5031556;28;20139;-60
2023/05/21 10:44:15;;;;;;;266.27;145.57;;;;;;;;;;5031165;28;20049;-62
2023/05/21 10:46:51;;;;;;;270.77;143.15;;;;;;;;;;5031037;28;20044;-63
2023/05/21 10:49:24;;;;;;;277.17;145.85;;;;;;;;;;5013608;28;20069;-63
2023/05/21 10:52:01;;;;;;;265.40;143.20;;;;;;;;;;5031515;28;20759;-63
2023/05/21 10:54:45;;;;;;;270.70;142.50;;;;;;;;;;5031404;28;20358;-63
2023/05/21 10:57:15;;;;;;;282.10;145.55;;;;;;;;;;5030932;28;20605;-63
2023/05/21 10:59:47;;;;;;;275.05;144.18;;;;;;;;;;5032105;28;20080;-63
2023/05/21 11:02:19;;;;;;;267.02;141.40;;;;;;;;;;5031324;28;20086;-64
2023/05/21 11:04:47;;;;;;;278.83;144.43;;;;;;;;;;5031946;28;20124;-63
2023/05/21 11:07:15;;;;;;;267.73;139.57;;;;;;;;;;5031626;28;20116;-64
2023/05/21 11:09:41;;;;;;;275.45;145.45;;;;;;;;;;5030675;28;20036;-62
2023/05/21 11:12:08;;;;;;;272.95;141.73;;;;;;;;;;5031890;28;20049;-64
2023/05/21 11:14:37;;;;;;;273.85;144.30;;;;;;;;;;5030707;28;20029;-64
2023/05/21 11:17:11;;;;;;;273.20;140.88;;;;;;;;;;5030043;28;20065;-64
2023/05/21 11:19:47;;;;;;;271.15;139.77;;;;;;;;;;5029553;28;20047;-64
2023/05/21 11:22:25;;;;;;;266.33;138.77;;;;;;;;;;5031130;28;20055;-63
2023/05/21 11:24:52;;;;;;;277.50;136.82;;;;;;;;;;5009526;28;20051;-62
2023/05/21 11:27:35;;;;;;;268.40;139.93;;;;;;;;;;5029265;28;20568;-63
2023/05/21 11:30:11;;;;;;;261.08;135.52;;;;;;;;;;5027869;28;20044;-64
2023/05/21 11:32:39;;;;;;;266.98;136.82;;;;;;;;;;5028156;28;20046;-63
2023/05/21 11:35:05;;;;;;;271.58;134.15;;;;;;;;;;5030008;28;20160;-63
2023/05/21 11:37:33;;;;;;;261.98;134.85;;;;;;;;;;5031311;28;20185;-64
2023/05/21 11:40:18;;;;;;;255.75;133.27;;;;;;;;;;5030836;28;20107;-64
2023/05/21 11:42:49;;;;;;;251.18;128.75;;;;;;;;;;5030252;28;20144;-64
2023/05/21 11:45:20;;;;;;;245.20;129.18;;;;;;;;;;5029652;28;20033;-63
2023/05/21 11:47:48;;;;;;;254.30;131.13;;;;;;;;;;5029995;28;20037;-63
2023/05/21 11:50:15;;;;;;;241.02;128.70;;;;;;;;;;5032583;28;21734;-63
2023/05/21 11:52:42;;;;;;;234.25;125.57;;;;;;;;;;5030036;28;20119;-63
2023/05/21 11:55:10;;;;;;;247.80;125.85;;;;;;;;;;5029563;28;20135;-65
2023/05/21 11:57:37;;;;;;;251.88;129.45;;;;;;;;;;5029726;28;20052;-64
2023/05/21 12:00:12;;;;;;;239.15;124.88;;;;;;;;;;5030146;28;20041;-65
2023/05/21 12:02:43;;;;;;;223.40;116.72;;;;;;;;;;5028942;28;20787;-64
2023/05/21 12:05:11;;;;;;;217.38;115.00;;;;;;;;;;5029004;28;20045;-65
2023/05/21 12:07:37;;;;;;;216.95;108.10;;;;;;;;;;5030768;28;20033;-63
2023/05/21 12:10:05;;;;;;;170.93;94.40;;;;;;;;;;5030430;28;20042;-64
2023/05/21 12:12:32;;;;;;;174.93;92.00;;;;;;;;;;5031380;28;20057;-64
2023/05/21 12:15:00;;;;;;;184.75;97.22;;;;;;;;;;5029903;28;20048;-66
2023/05/21 12:17:27;;;;;;;169.88;92.15;;;;;;;;;;5031303;28;20610;-65
2023/05/21 12:19:56;;;;;;;172.95;91.43;;;;;;;;;;5031507;28;20041;-65
2023/05/21 12:22:23;;;;;;;159.77;84.28;;;;;;;;;;5029839;28;20033;-65
2023/05/21 12:24:52;;;;;;;156.32;81.53;;;;;;;;;;5033986;28;20118;-64
2023/05/21 12:27:19;;;;;;;167.73;85.18;;;;;;;;;;5029644;28;20036;-63
2023/05/21 12:29:46;;;;;;;163.38;83.80;;;;;;;;;;5031140;28;20041;-63
2023/05/21 12:32:13;;;;;;;160.68;87.60;;;;;;;;;;5032286;28;20048;-63
2023/05/21 12:34:43;;;;;;;177.25;88.93;;;;;;;;;;5029311;28;20468;-63
2023/05/21 12:37:15;;;;;;;162.98;84.75;;;;;;;;;;5032881;28;20045;-63
2023/05/21 12:39:46;;;;;;;167.23;90.90;;;;;;;;;;5030210;28;20493;-63
2023/05/21 12:42:13;;;;;;;160.55;84.95;;;;;;;;;;5029614;28;20052;-63
2023/05/21 12:44:43;;;;;;;163.27;87.07;;;;;;;;;;5029110;28;20045;-63
2023/05/21 12:47:10;;;;;;;164.27;87.72;;;;;;;;;;5022091;28;20598;-65
2023/05/21 12:49:39;;;;;;;179.40;86.40;;;;;;;;;;5029509;28;20504;-62
2023/05/21 12:52:09;;;;;;;168.50;84.20;;;;;;;;;;5030326;28;20048;-63
2023/05/21 12:54:36;;;;;;;167.88;84.60;;;;;;;;;;5028210;28;20049;-64
2023/05/21 12:57:16;;;;;;;165.98;82.38;;;;;;;;;;5034710;28;20564;-64
2023/05/21 12:59:52;;;;;;;168.30;82.72;;;;;;;;;;5032099;28;20049;-65
2023/05/21 13:02:20;;;;;;;137.60;73.03;;;;;;;;;;5035088;28;20041;-64
2023/05/21 13:04:47;;;;;;;133.60;68.15;;;;;;;;;;5031612;28;20041;-65
2023/05/21 13:07:15;;;;;;;118.13;61.20;;;;;;;;;;5033755;28;20510;-64
2023/05/21 13:09:42;;;;;;;106.30;55.15;;;;;;;;;;5033450;28;20482;-64
2023/05/21 13:12:08;;;;;;;119.68;58.65;;;;;;;;;;5034868;28;20106;-64
2023/05/21 13:14:35;;;;;;;104.22;59.00;;;;;;;;;;5035896;28;20095;-64
2023/05/21 13:17:02;;;;;;;109.82;57.13;;;;;;;;;;5033936;28;20506;-64
2023/05/21 13:19:28;;;;;;;103.80;53.70;;;;;;;;;;5033481;28;20069;-64
2023/05/21 13:21:55;;;;;;;87.72;50.53;;;;;;;;;;5035163;28;20576;-64
2023/05/21 13:24:22;;;;;;;94.68;48.92;;;;;;;;;;5033999;28;20074;-64
2023/05/21 13:26:48;;;;;;;78.68;44.72;;;;;;;;;;5032698;28;20080;-65
2023/05/21 13:29:16;;;;;;;80.10;44.00;;;;;;;;;;5034403;28;20523;-64
2023/05/21 13:31:42;;;;;;;83.07;43.75;;;;;;;;;;5032931;28;20566;-64
2023/05/21 13:34:10;;;;;;;79.15;43.70;;;;;;;;;;5034137;28;20048;-64
2023/05/21 13:36:37;;;;;;;70.97;39.92;;;;;;;;;;5032547;28;20164;-65
2023/05/21 13:39:03;;;;;;;62.92;36.22;;;;;;;;;;5032625;28;20047;-64
2023/05/21 13:41:30;;;;;;;63.72;33.95;;;;;;;;;;5032130;28;20131;-65
2023/05/21 13:43:57;;;;;;;57.65;31.83;;;;;;;;;;5034057;28;20474;-64
2023/05/21 13:46:23;;;;;;;54.78;29.73;;;;;;;;;;5032462;28;20170;-64
2023/05/21 13:48:50;;;;;;;53.42;28.67;;;;;;;;;;5034383;28;20107;-65
2023/05/21 13:51:17;;;;;;;36.30;22.17;;;;;;;;;;5036652;28;20124;-65
2023/05/21 13:53:46;;;;;;;30.10;17.20;;;;;;;;;;5016168;28;20073;-62
2023/05/21 13:56:13;;;;;;;21.30;12.93;;;;;;;;;;5032378;28;20084;-64
2023/05/21 13:58:39;;;;;;;21.52;11.05;;;;;;;;;;5033238;28;20060;-64
2023/05/21 14:01:06;;;;;;;17.42;10.13;;;;;;;;;;5032048;28;20037;-65